< < Back
Terminal Aerodrome Forecast


Current Version              Previous Versions:   1  2  3  4  5  6  7  8  9  

Terminal Aerodrome Forecast

286
FTUS42 KGSP 261534 AAC
TAFGSP
TAF AMD
KGSP 261534Z 2616/2712 22011G19KT P6SM FEW015 BKN050
     FM270100 24005KT P6SM -SHRA OVC070 PROB30 2704/2707 4SM TSRA
      OVC040CB
     FM270700 33005KT 6SM -SHRA OVC012=



Latest METAR

486
SAUS70 KWBC 270200 RRD
MTRGSP
METAR KGSP 270153Z 20007KT 10SM CLR 18/10 A2975 RMK AO2 SLP066
T01780100


USA.gov is the U.S. government's official web portal to all federal, state and local government web resources and services.